Saint Helens, OR (97051)

11:53 AM PDT on October 31, 2014 (GMT -0700)
Arbor Hill, Sykes Rd. | Change Station
CLOSE
Current Station
Personal Weather Station
Location: St. Helens, OR
Elevation: 200 ft
Nearby Weather Stations

Elev 200 ft 45.85 °N, 122.85 °W | Updated 2 minutes ago

Overcast
Overcast
51.3 °F
Feels Like 51.3 °F
N
1.0
Wind Variable Wind from SSE
Gusts 1.0 mph

Today
High -- | Low -- °F
--% Chance of Precip.
Yesterday
High -- | Low -- °F
Precip. -- in
7:50 AM 5:59 PM
First Quarter, 58% visible
Pressure 29.84 in
Visibility 9.0 miles
Clouds Mostly Cloudy 700 ft
Mostly Cloudy 1600 ft
Overcast 3200 ft
Dew Point 50 °F
Humidity 94%
Rainfall 0.40 in
Snow Depth Not available.
UV 1 out of 12
Pollen .40 out of 12
Air Quality Not available.
Flu Activity Not available.
SPECI KSPB 311843Z AUTO 00000KT 9SM -RA BKN007 BKN016 OVC032 11/10 A2984 RMK AO2 CIG 006V010 P0002 T01110100

More Conditions Fewer Conditions

Pressure 29.84 in
Visibility 9.0 miles
Clouds Mostly Cloudy 700 ft
Mostly Cloudy 1600 ft
Overcast 3200 ft
Dew Point 50 °F
Humidity 94%
Rainfall 0.40 in
Snow Depth Not available.
UV 1 out of 12
Pollen .40 out of 12
Air Quality Not available.
Flu Activity Not available.
SPECI KSPB 311843Z AUTO 00000KT 9SM -RA BKN007 BKN016 OVC032 11/10 A2984 RMK AO2 CIG 006V010 P0002 T01110100

More Conditions Fewer Conditions

10-Day Weather Forecast

Almanac

Astronomy

Oct. 31, 2014 Rise Set
Actual Time
Civil Twilight
Nautical Twilight
Astronomical Twilight
Moon
Length of Visible Light
Length of Day
Tomorrow will be .
, % of the Moon is Illuminated

Today's Extremes

State Highs State Lows

Community

WunderPhotos

Upload Photos

1,766,690 photos uploaded!

WunderBlogs® & News

Nearby

Air Quality

  Air Quality AQ Index Pollutant
Not available.

Snow Depth

Station Depth Elevation

Earthquake Activity

City Distance Mag. Time & Date
Minimum magnitude displayed is 2.5.

Coastal Water Temperatures

Place Temperature

Nearby Weather Stations